createdAt,value
2019-05-20T00:01:08.390Z,78.10
2019-05-20T00:03:36.845Z,77.59
2019-05-20T00:06:05.340Z,77.64
2019-05-20T00:08:33.804Z,77.55
2019-05-20T00:11:02.268Z,78.14
2019-05-20T00:13:30.693Z,78.91
2019-05-20T00:15:59.113Z,78.88
2019-05-20T00:18:27.580Z,78.52
2019-05-20T00:20:56.067Z,78.27
2019-05-20T00:23:24.526Z,78.44
2019-05-20T00:25:52.952Z,77.82
2019-05-20T00:28:21.400Z,77.56
2019-05-20T00:30:49.838Z,78.00
2019-05-20T00:33:18.299Z,77.83
2019-05-20T00:35:46.722Z,77.64
2019-05-20T00:38:15.183Z,76.39
2019-05-20T00:40:43.631Z,76.27
2019-05-20T00:43:12.069Z,76.19
2019-05-20T00:45:40.521Z,77.78
2019-05-20T00:48:08.946Z,77.43
2019-05-20T00:50:37.395Z,77.37
2019-05-20T00:53:05.914Z,78.19
2019-05-20T00:55:34.589Z,78.69
2019-05-20T00:58:03.046Z,78.37
2019-05-20T01:00:32.064Z,77.93
2019-05-20T01:03:00.504Z,77.49
2019-05-20T01:05:28.960Z,77.63
2019-05-20T01:07:57.449Z,76.96
2019-05-20T01:10:25.999Z,75.98
2019-05-20T01:12:54.386Z,76.79
2019-05-20T01:15:22.974Z,76.73
2019-05-20T01:17:51.415Z,76.69
2019-05-20T01:20:19.866Z,76.38
2019-05-20T01:22:48.336Z,76.21
2019-05-20T01:25:16.816Z,76.05
2019-05-20T01:27:45.246Z,76.41
2019-05-20T01:30:14.164Z,75.95
2019-05-20T01:32:42.582Z,75.86
2019-05-20T01:35:11.483Z,76.07
2019-05-20T01:37:39.917Z,75.89
2019-05-20T01:40:08.814Z,76.50
2019-05-20T01:42:37.260Z,76.31
2019-05-20T01:45:06.128Z,76.95
2019-05-20T01:47:34.567Z,77.07
2019-05-20T01:50:03.888Z,77.56
2019-05-20T01:52:32.324Z,78.37
2019-05-20T01:55:00.770Z,78.23
2019-05-20T01:57:29.205Z,77.86
2019-05-20T01:59:57.669Z,76.92
2019-05-20T02:02:26.131Z,77.05
2019-05-20T02:04:54.576Z,77.33
2019-05-20T02:07:23.494Z,76.93
2019-05-20T02:09:51.939Z,77.60
2019-05-20T02:12:20.399Z,78.40
2019-05-20T02:14:59.478Z,77.61
2019-05-20T02:17:27.933Z,77.08
2019-05-20T02:19:56.358Z,77.06
2019-05-20T02:22:24.833Z,76.77
2019-05-20T02:24:53.278Z,76.50
2019-05-20T02:27:21.759Z,76.94
2019-05-20T02:29:50.271Z,76.53
2019-05-20T02:32:18.726Z,76.32
2019-05-20T02:34:47.170Z,75.96
2019-05-20T02:37:15.616Z,76.80
2019-05-20T02:39:44.060Z,77.09
2019-05-20T02:42:12.528Z,77.68
2019-05-20T02:44:40.971Z,77.47
2019-05-20T02:47:09.400Z,76.24
2019-05-20T02:49:37.821Z,75.70
2019-05-20T02:52:06.263Z,76.43
2019-05-20T02:54:34.689Z,77.11
2019-05-20T02:57:03.136Z,77.08
2019-05-20T02:59:31.598Z,76.99
2019-05-20T03:02:00.058Z,76.76
2019-05-20T03:04:28.506Z,76.59
2019-05-20T03:06:56.962Z,76.53
2019-05-20T03:09:25.461Z,76.15
2019-05-20T03:11:53.915Z,76.41
2019-05-20T03:14:22.331Z,76.04
2019-05-20T03:16:50.804Z,76.07
2019-05-20T03:19:19.245Z,76.45
2019-05-20T03:21:47.703Z,75.54
2019-05-20T03:24:16.168Z,75.43
2019-05-20T03:26:44.727Z,75.83
2019-05-20T03:29:13.491Z,75.15
2019-05-20T03:31:41.957Z,75.07
2019-05-20T03:34:38.719Z,74.91
2019-05-20T03:36:42.055Z,75.11
2019-05-20T03:39:10.500Z,75.36
2019-05-20T03:41:38.905Z,75.09
2019-05-20T03:44:07.365Z,74.55
2019-05-20T03:46:35.806Z,73.89
2019-05-20T03:49:04.259Z,75.44
2019-05-20T03:51:32.685Z,76.43
2019-05-20T03:54:01.141Z,75.31
2019-05-20T03:56:29.589Z,76.10
2019-05-20T03:58:58.061Z,74.96
2019-05-20T04:01:26.491Z,75.68
2019-05-20T04:03:54.934Z,75.02
2019-05-20T04:06:23.372Z,75.35
2019-05-20T04:08:51.829Z,74.90
2019-05-20T04:11:20.279Z,74.52
2019-05-20T04:13:48.735Z,74.14
2019-05-20T04:16:17.188Z,73.80
2019-05-20T04:18:45.655Z,74.35
2019-05-20T04:21:14.088Z,73.71
2019-05-20T04:23:42.652Z,74.52
2019-05-20T04:26:11.092Z,74.18
2019-05-20T04:28:39.527Z,74.68
2019-05-20T04:31:07.997Z,74.50
2019-05-20T04:33:36.520Z,74.00
2019-05-20T04:36:04.957Z,73.17
2019-05-20T04:38:33.424Z,73.30
2019-05-20T04:41:01.858Z,72.91
2019-05-20T04:43:30.345Z,73.47
2019-05-20T04:45:58.770Z,72.97
2019-05-20T04:48:27.250Z,72.96
2019-05-20T04:50:55.684Z,73.14
2019-05-20T04:53:24.144Z,72.80
2019-05-20T04:55:52.603Z,72.86
2019-05-20T04:58:21.058Z,73.61
2019-05-20T05:00:54.980Z,74.00
2019-05-20T05:03:23.782Z,73.59
2019-05-20T05:05:59.567Z,75.34
2019-05-20T05:08:28.009Z,74.43
2019-05-20T05:10:59.693Z,74.46
2019-05-20T05:13:28.153Z,73.18
2019-05-20T05:15:56.774Z,73.74
2019-05-20T05:18:25.624Z,73.35
2019-05-20T05:20:54.202Z,72.85
2019-05-20T05:23:24.201Z,73.61
2019-05-20T05:25:54.456Z,73.28
2019-05-20T05:28:22.953Z,73.44
2019-05-20T05:30:51.388Z,73.75
2019-05-20T05:33:19.911Z,74.39
2019-05-20T05:35:53.237Z,73.00
2019-05-20T05:38:18.651Z,73.31
2019-05-20T05:40:47.082Z,72.58
2019-05-20T05:43:15.545Z,72.80
2019-05-20T05:45:44.004Z,72.66
2019-05-20T05:48:12.524Z,73.27
2019-05-20T05:50:41.034Z,73.00
2019-05-20T05:53:09.540Z,73.99
2019-05-20T05:55:38.065Z,74.42
2019-05-20T05:58:08.750Z,74.94
2019-05-20T06:00:36.675Z,74.11
2019-05-20T06:03:05.274Z,74.58
2019-05-20T06:05:33.996Z,73.18
2019-05-20T06:08:02.477Z,74.27
2019-05-20T06:10:30.954Z,72.43
2019-05-20T06:12:59.391Z,71.58
2019-05-20T06:15:27.845Z,72.07
2019-05-20T06:17:56.317Z,71.40
2019-05-20T06:20:24.827Z,71.16
2019-05-20T06:22:53.316Z,71.56
2019-05-20T06:25:21.916Z,71.49
2019-05-20T06:27:50.342Z,70.47
2019-05-20T06:30:20.589Z,69.89
2019-05-20T06:32:49.036Z,70.80
2019-05-20T06:35:17.637Z,70.05
2019-05-20T06:37:50.606Z,70.61
2019-05-20T06:40:19.249Z,72.00
2019-05-20T06:42:47.670Z,71.91
2019-05-20T06:45:16.210Z,71.87
2019-05-20T06:47:44.658Z,70.99
2019-05-20T06:50:13.260Z,71.00
2019-05-20T06:52:41.755Z,70.65
2019-05-20T06:55:10.827Z,71.72
2019-05-20T06:57:39.290Z,71.74
2019-05-20T07:00:08.840Z,71.61
2019-05-20T07:02:37.316Z,70.65
2019-05-20T07:05:07.400Z,72.28
2019-05-20T07:07:35.895Z,70.49
2019-05-20T07:10:07.017Z,69.85
2019-05-20T07:12:41.091Z,69.96
2019-05-20T07:15:07.299Z,71.02
2019-05-20T07:17:35.743Z,69.80
2019-05-20T07:20:06.071Z,69.68
2019-05-20T07:22:34.564Z,70.14
2019-05-20T07:25:03.050Z,71.13
2019-05-20T07:27:31.539Z,70.57
2019-05-20T07:29:59.976Z,70.62
2019-05-20T07:32:28.446Z,71.03
2019-05-20T07:34:56.911Z,71.12
2019-05-20T07:37:25.410Z,69.34
2019-05-20T07:39:53.829Z,68.61
2019-05-20T07:42:22.253Z,68.40
2019-05-20T07:44:50.682Z,68.89
2019-05-20T07:47:19.475Z,68.04
2019-05-20T07:49:49.075Z,67.55
2019-05-20T07:52:17.879Z,67.72
2019-05-20T07:54:48.055Z,68.75
2019-05-20T07:57:18.742Z,69.62
2019-05-20T07:59:50.487Z,69.48
2019-05-20T08:02:19.192Z,70.22
2019-05-20T08:04:47.740Z,70.10
2019-05-20T08:07:27.601Z,70.27
2019-05-20T08:09:46.725Z,70.16
2019-05-20T08:12:15.291Z,71.04
2019-05-20T08:14:43.812Z,70.27
2019-05-20T08:17:12.317Z,71.42
2019-05-20T08:19:40.781Z,71.37
2019-05-20T08:22:09.239Z,70.20
2019-05-20T08:24:37.677Z,69.51
2019-05-20T08:27:06.205Z,69.88
2019-05-20T08:29:34.639Z,71.35
2019-05-20T08:32:03.167Z,70.76
2019-05-20T08:34:31.943Z,71.72
2019-05-20T08:37:00.518Z,70.48
2019-05-20T08:39:28.959Z,69.81
2019-05-20T08:41:57.501Z,69.45
2019-05-20T08:44:25.966Z,67.53
2019-05-20T08:46:54.496Z,66.47
2019-05-20T08:49:22.983Z,66.58
2019-05-20T08:51:51.674Z,67.15
2019-05-20T08:54:20.116Z,66.92
2019-05-20T08:56:49.408Z,67.91
2019-05-20T08:59:17.973Z,68.50
2019-05-20T09:01:46.410Z,69.28
2019-05-20T09:04:14.909Z,69.84
2019-05-20T09:06:43.358Z,69.54
2019-05-20T09:09:12.458Z,68.86
2019-05-20T09:11:41.031Z,69.30
2019-05-20T09:14:09.453Z,68.57
2019-05-20T09:16:37.982Z,68.66
2019-05-20T09:19:06.530Z,68.51
2019-05-20T09:21:35.026Z,69.01
2019-05-20T09:24:03.548Z,69.84
2019-05-20T09:26:32.006Z,68.53
2019-05-20T09:29:00.453Z,68.08
2019-05-20T09:31:29.162Z,69.08
2019-05-20T09:33:57.692Z,69.20
2019-05-20T09:36:26.188Z,68.65
2019-05-20T09:38:54.650Z,68.78
2019-05-20T09:41:23.132Z,67.04
2019-05-20T09:43:51.570Z,66.78
2019-05-20T09:46:20.016Z,66.40
2019-05-20T09:48:48.519Z,67.14
2019-05-20T09:51:16.941Z,66.65
2019-05-20T09:53:45.430Z,67.39
2019-05-20T09:56:13.959Z,67.18
2019-05-20T09:58:42.485Z,67.88
2019-05-20T10:01:11.066Z,68.79
2019-05-20T10:03:39.487Z,66.80
2019-05-20T10:06:07.983Z,67.14
2019-05-20T10:08:43.301Z,67.18
2019-05-20T10:11:06.613Z,65.91
2019-05-20T10:13:35.029Z,66.61
2019-05-20T10:16:03.549Z,66.76
2019-05-20T10:18:37.236Z,66.33
2019-05-20T10:21:02.187Z,64.55
2019-05-20T10:23:30.620Z,64.63
2019-05-20T10:25:59.101Z,66.83
2019-05-20T10:28:27.624Z,66.73
2019-05-20T10:30:56.166Z,66.76
2019-05-20T10:33:24.640Z,67.09
2019-05-20T10:35:53.123Z,67.03
2019-05-20T10:38:21.569Z,67.34
2019-05-20T10:40:50.054Z,68.29
2019-05-20T10:43:18.621Z,68.07
2019-05-20T10:45:47.098Z,68.97
2019-05-20T10:48:15.527Z,67.32
2019-05-20T10:50:43.995Z,66.11
2019-05-20T10:53:12.442Z,65.31
2019-05-20T10:55:40.919Z,65.83
2019-05-20T10:58:09.359Z,65.37
2019-05-20T11:00:37.942Z,65.93
2019-05-20T11:03:06.377Z,67.57
2019-05-20T11:05:34.853Z,67.82
2019-05-20T11:08:03.302Z,67.77
2019-05-20T11:10:31.812Z,67.82
2019-05-20T11:13:00.348Z,68.12
2019-05-20T11:15:28.783Z,66.80
2019-05-20T11:17:57.271Z,68.30
2019-05-20T11:20:25.825Z,67.13
2019-05-20T11:22:54.321Z,66.38
2019-05-20T11:25:22.753Z,66.82
2019-05-20T11:27:51.669Z,67.51
2019-05-20T11:30:20.555Z,67.33
2019-05-20T11:32:48.996Z,65.60
2019-05-20T11:35:17.692Z,64.66
2019-05-20T11:37:46.718Z,65.10
2019-05-20T11:40:15.669Z,63.84
2019-05-20T11:42:44.077Z,64.73
2019-05-20T11:45:12.672Z,65.41
2019-05-20T11:47:41.192Z,65.49
2019-05-20T11:50:10.717Z,66.13
2019-05-20T11:52:39.218Z,67.88
2019-05-20T11:55:09.152Z,68.03
2019-05-20T11:57:37.798Z,66.65
2019-05-20T12:00:08.235Z,66.27
2019-05-20T12:02:36.709Z,65.40
2019-05-20T12:05:07.126Z,65.76
2019-05-20T12:07:35.651Z,66.85
2019-05-20T12:10:08.897Z,65.84
2019-05-20T12:12:37.679Z,65.33
2019-05-20T12:15:08.716Z,64.28
2019-05-20T12:17:37.209Z,66.27
2019-05-20T12:20:11.842Z,64.65
2019-05-20T12:22:39.662Z,64.67
2019-05-20T12:25:09.313Z,64.41
2019-05-20T12:27:37.762Z,64.22
2019-05-20T12:30:09.014Z,65.67
2019-05-20T12:32:37.445Z,66.58
2019-05-20T12:35:08.022Z,66.15
2019-05-20T12:37:36.487Z,66.00
2019-05-20T12:40:08.338Z,65.52
2019-05-20T12:42:37.295Z,64.74
2019-05-20T12:45:07.328Z,65.56
2019-05-20T12:47:35.775Z,65.59
2019-05-20T12:50:05.142Z,64.23
2019-05-20T12:52:33.576Z,63.58
2019-05-20T12:55:07.742Z,64.40
2019-05-20T12:57:32.151Z,64.71
2019-05-20T13:00:00.609Z,64.26
2019-05-20T13:02:29.066Z,64.41
2019-05-20T13:04:57.491Z,64.52
2019-05-20T13:07:25.942Z,64.71
2019-05-20T13:09:54.379Z,64.80
2019-05-20T13:12:22.822Z,66.47
2019-05-20T13:14:56.037Z,66.43
2019-05-20T13:17:24.720Z,66.23
2019-05-20T13:19:56.094Z,65.53
2019-05-20T13:22:26.596Z,65.59
2019-05-20T13:24:56.991Z,64.29
2019-05-20T13:27:25.471Z,65.13
2019-05-20T13:29:53.995Z,66.53
2019-05-20T13:32:22.418Z,66.12
2019-05-20T13:34:51.217Z,65.23
2019-05-20T13:37:19.785Z,64.22
2019-05-20T13:39:48.322Z,64.51
2019-05-20T13:42:16.822Z,65.07
2019-05-20T13:44:45.283Z,65.18
2019-05-20T13:47:13.744Z,65.90
2019-05-20T13:49:42.197Z,66.86
2019-05-20T13:52:10.640Z,66.85
2019-05-20T13:54:39.083Z,66.93
2019-05-20T13:57:07.593Z,65.81
2019-05-20T13:59:36.079Z,65.51
2019-05-20T14:02:04.531Z,65.69
2019-05-20T14:04:32.993Z,64.89
2019-05-20T14:07:01.441Z,64.96
2019-05-20T14:09:29.894Z,63.61
2019-05-20T14:11:58.315Z,63.28
2019-05-20T14:14:26.800Z,63.24
2019-05-20T14:16:55.290Z,63.47
2019-05-20T14:19:23.712Z,64.11
2019-05-20T14:21:52.162Z,65.70
2019-05-20T14:24:20.701Z,65.29
2019-05-20T14:26:49.195Z,65.64
2019-05-20T14:29:17.646Z,66.24
2019-05-20T14:31:46.118Z,65.94
2019-05-20T14:34:14.553Z,65.93
2019-05-20T14:36:42.992Z,66.43
2019-05-20T14:39:11.436Z,67.57
2019-05-20T14:41:39.891Z,67.30
2019-05-20T14:44:08.396Z,66.12
2019-05-20T14:46:36.859Z,66.68
2019-05-20T14:49:05.288Z,68.09
2019-05-20T14:51:33.738Z,67.04
2019-05-20T14:54:02.176Z,67.17
2019-05-20T14:56:30.631Z,66.93
2019-05-20T14:58:59.067Z,66.40
2019-05-20T15:01:27.606Z,67.98
2019-05-20T15:03:56.014Z,66.95
2019-05-20T15:06:24.493Z,66.90
2019-05-20T15:08:52.944Z,66.29
2019-05-20T15:11:36.817Z,67.37
2019-05-20T15:13:51.570Z,66.87
2019-05-20T15:16:20.026Z,67.27
2019-05-20T15:18:48.453Z,66.17
2019-05-20T15:21:16.923Z,66.34
2019-05-20T15:23:45.391Z,66.50
2019-05-20T15:26:13.849Z,65.68
2019-05-20T15:28:42.349Z,65.47
2019-05-20T15:31:10.809Z,66.45
2019-05-20T15:33:39.219Z,65.69
2019-05-20T15:36:07.742Z,66.08
2019-05-20T15:38:36.174Z,65.62
2019-05-20T15:41:04.686Z,66.06
2019-05-20T15:43:33.132Z,65.81
2019-05-20T15:46:01.589Z,65.68
2019-05-20T15:48:30.032Z,65.60
2019-05-20T15:50:58.464Z,66.81
2019-05-20T15:53:26.978Z,65.70
2019-05-20T15:55:55.402Z,65.35
2019-05-20T15:58:24.137Z,65.98
2019-05-20T16:00:52.601Z,66.20
2019-05-20T16:03:23.987Z,65.28
2019-05-20T16:05:52.473Z,65.94
2019-05-20T16:08:20.932Z,64.14
2019-05-20T16:10:49.349Z,65.50
2019-05-20T16:13:17.845Z,65.27
2019-05-20T16:15:46.291Z,65.73
2019-05-20T16:18:14.772Z,64.98
2019-05-20T16:20:43.361Z,66.25
2019-05-20T16:23:11.881Z,66.53
2019-05-20T16:25:40.310Z,66.94
2019-05-20T16:28:08.755Z,65.97
2019-05-20T16:30:37.263Z,66.37
2019-05-20T16:33:05.910Z,67.18
2019-05-20T16:35:34.339Z,66.40
2019-05-20T16:38:02.765Z,66.94
2019-05-20T16:40:31.306Z,66.50
2019-05-20T16:42:59.732Z,66.41
2019-05-20T16:45:28.186Z,66.49
2019-05-20T16:47:56.649Z,66.39
2019-05-20T16:50:26.812Z,66.11
2019-05-20T16:52:55.235Z,67.76
2019-05-20T16:55:23.684Z,68.12
2019-05-20T16:57:52.251Z,68.24
2019-05-20T17:00:31.278Z,69.11
2019-05-20T17:02:51.033Z,67.49
2019-05-20T17:05:19.477Z,69.07
2019-05-20T17:07:47.930Z,67.54
2019-05-20T17:10:16.463Z,68.25
2019-05-20T17:12:44.920Z,67.65
2019-05-20T17:15:13.901Z,67.38
2019-05-20T17:17:42.370Z,67.33
2019-05-20T17:20:11.054Z,67.27
2019-05-20T17:22:39.494Z,67.59
2019-05-20T17:25:08.378Z,67.35
2019-05-20T17:27:36.991Z,67.33
2019-05-20T17:30:07.645Z,67.59
2019-05-20T17:32:36.085Z,66.17
2019-05-20T17:35:04.928Z,66.15
2019-05-20T17:37:33.390Z,65.62
2019-05-20T17:40:01.927Z,66.97
2019-05-20T17:42:30.532Z,67.16
2019-05-20T17:44:59.064Z,66.84
2019-05-20T17:47:27.684Z,65.83
2019-05-20T17:49:56.365Z,67.19
2019-05-20T17:52:24.821Z,67.12
2019-05-20T17:54:56.093Z,66.80
2019-05-20T17:57:24.526Z,67.11
2019-05-20T17:59:53.338Z,67.50
2019-05-20T18:02:21.799Z,66.99
2019-05-20T18:04:50.325Z,67.34
2019-05-20T18:07:18.761Z,67.86
2019-05-20T18:09:49.049Z,68.04
2019-05-20T18:12:17.540Z,68.04
2019-05-20T18:14:47.609Z,68.52
2019-05-20T18:17:16.031Z,67.52
2019-05-20T18:19:47.021Z,67.61
2019-05-20T18:22:15.026Z,67.23
2019-05-20T18:24:43.475Z,67.48
2019-05-20T18:27:13.501Z,68.09
2019-05-20T18:29:43.695Z,66.99
2019-05-20T18:32:13.734Z,67.35
2019-05-20T18:34:42.303Z,67.08
2019-05-20T18:37:10.797Z,66.99
2019-05-20T18:39:39.287Z,66.94
2019-05-20T18:42:09.410Z,67.54
2019-05-20T18:44:37.932Z,66.77
2019-05-20T18:47:08.490Z,66.47
2019-05-20T18:49:41.214Z,67.19
2019-05-20T18:52:14.805Z,67.31
2019-05-20T18:54:43.240Z,67.08
2019-05-20T18:57:11.743Z,68.05
2019-05-20T18:59:40.203Z,67.88
2019-05-20T19:02:12.189Z,67.20
2019-05-20T19:04:40.655Z,67.92
2019-05-20T19:07:09.171Z,67.85
2019-05-20T19:09:39.262Z,68.02
2019-05-20T19:12:09.332Z,68.33
2019-05-20T19:14:37.876Z,68.17
2019-05-20T19:17:06.450Z,67.78
2019-05-20T19:19:34.929Z,68.41
2019-05-20T19:22:03.360Z,68.91
2019-05-20T19:24:31.801Z,69.14
2019-05-20T19:27:00.239Z,69.58
2019-05-20T19:29:28.717Z,69.97
2019-05-20T19:32:01.809Z,69.27
2019-05-20T19:34:27.328Z,69.04
2019-05-20T19:36:58.680Z,68.71
2019-05-20T19:39:27.504Z,69.80
2019-05-20T19:41:55.974Z,70.93
2019-05-20T19:44:24.497Z,72.56
2019-05-20T19:46:52.937Z,70.94
2019-05-20T19:49:21.355Z,70.98
2019-05-20T19:51:49.805Z,71.04
2019-05-20T19:54:18.251Z,71.11
2019-05-20T19:56:46.729Z,71.38
2019-05-20T19:59:15.129Z,71.60
2019-05-20T20:01:43.611Z,71.06
2019-05-20T20:04:12.016Z,71.01
2019-05-20T20:06:40.511Z,70.33
2019-05-20T20:09:08.972Z,69.45
2019-05-20T20:11:37.416Z,69.71
2019-05-20T20:14:05.849Z,70.31
2019-05-20T20:16:34.297Z,71.59
2019-05-20T20:19:02.753Z,72.74
2019-05-20T20:21:31.183Z,70.62
2019-05-20T20:23:59.618Z,71.50
2019-05-20T20:26:28.084Z,71.72
2019-05-20T20:28:56.518Z,71.66
2019-05-20T20:31:24.978Z,72.85
2019-05-20T20:33:53.438Z,71.28
2019-05-20T20:36:21.874Z,72.97
2019-05-20T20:38:50.328Z,73.34
2019-05-20T20:41:18.833Z,72.76
2019-05-20T20:43:47.276Z,73.67
2019-05-20T20:46:15.716Z,72.69
2019-05-20T20:48:44.155Z,73.21
2019-05-20T20:51:12.607Z,73.04
2019-05-20T20:53:41.028Z,73.04
2019-05-20T20:56:24.090Z,73.14
2019-05-20T20:58:39.639Z,73.59
2019-05-20T21:01:08.092Z,73.24
2019-05-20T21:03:36.510Z,74.58
2019-05-20T21:06:05.045Z,74.84
2019-05-20T21:08:33.482Z,75.28
2019-05-20T21:11:01.966Z,75.12
2019-05-20T21:13:30.369Z,75.77
2019-05-20T21:15:58.807Z,76.57
2019-05-20T21:18:27.298Z,75.11
2019-05-20T21:20:55.784Z,76.42
2019-05-20T21:23:24.213Z,75.64
2019-05-20T21:25:52.643Z,75.39
2019-05-20T21:28:21.118Z,75.93
2019-05-20T21:30:49.561Z,77.69
2019-05-20T21:33:18.068Z,77.65
2019-05-20T21:35:46.511Z,78.63
2019-05-20T21:38:14.980Z,77.04
2019-05-20T21:40:43.392Z,78.38
2019-05-20T21:43:11.858Z,77.50
2019-05-20T21:45:40.336Z,77.41
2019-05-20T21:48:08.840Z,77.43
2019-05-20T21:50:37.305Z,76.61
2019-05-20T21:53:05.718Z,76.74
2019-05-20T21:55:34.154Z,77.89
2019-05-20T21:58:03.625Z,76.45
2019-05-20T22:00:45.657Z,76.67
2019-05-20T22:03:23.875Z,77.80
2019-05-20T22:05:44.317Z,77.03
2019-05-20T22:08:18.844Z,76.36
2019-05-20T22:10:46.541Z,77.03
2019-05-20T22:13:15.008Z,76.97
2019-05-20T22:15:43.517Z,78.69
2019-05-20T22:18:12.000Z,78.47
2019-05-20T22:20:40.420Z,77.64
2019-05-20T22:23:16.243Z,78.64
2019-05-20T22:25:46.675Z,78.09
2019-05-20T22:28:15.106Z,78.91
2019-05-20T22:30:43.538Z,78.79
2019-05-20T22:33:40.528Z,78.65
2019-05-20T22:35:57.217Z,79.04
2019-05-20T22:38:25.671Z,78.02
2019-05-20T22:40:54.123Z,78.51
2019-05-20T22:43:22.583Z,79.57
2019-05-20T22:45:51.007Z,80.10
2019-05-20T22:48:19.458Z,80.49
2019-05-20T22:50:48.865Z,80.26
2019-05-20T22:53:17.481Z,79.98
2019-05-20T22:55:45.894Z,80.57
2019-05-20T22:58:14.354Z,79.51
2019-05-20T23:00:42.775Z,79.48
2019-05-20T23:03:11.229Z,79.45
2019-05-20T23:05:39.673Z,79.83
2019-05-20T23:08:08.139Z,78.97
2019-05-20T23:10:36.605Z,81.00
2019-05-20T23:13:05.019Z,79.36
2019-05-20T23:15:33.469Z,80.12
2019-05-20T23:18:01.913Z,80.11
2019-05-20T23:20:30.452Z,80.08
2019-05-20T23:22:58.926Z,80.68
2019-05-20T23:25:27.364Z,80.40
2019-05-20T23:27:55.803Z,80.20
2019-05-20T23:30:24.262Z,80.11
2019-05-20T23:32:52.686Z,81.21
2019-05-20T23:35:21.140Z,80.67
2019-05-20T23:37:49.578Z,80.53
2019-05-20T23:40:18.062Z,81.28
2019-05-20T23:42:46.485Z,80.93
2019-05-20T23:45:15.078Z,81.79
2019-05-20T23:47:43.521Z,81.05
2019-05-20T23:50:12.687Z,80.16
2019-05-20T23:52:41.174Z,80.58
2019-05-20T23:55:10.073Z,80.80
2019-05-20T23:57:38.496Z,81.17
